createdAt,value
2016-07-27T00:00:28.480Z,97.02
2016-07-27T18:18:26.045Z,87.82
2016-07-27T18:18:31.823Z,88.55
2016-07-27T18:19:29.483Z,89.35
2016-07-27T18:20:34.335Z,89.05
2016-07-27T18:21:36.104Z,89.46
2016-07-27T18:22:35.382Z,89.55
2016-07-27T18:23:45.226Z,89.56
2016-07-27T18:24:45.960Z,89.15
2016-07-27T18:25:34.790Z,87.86
2016-07-27T18:26:31.994Z,88.52
2016-07-27T18:27:23.639Z,88.97
2016-07-27T18:28:35.742Z,88.50
2016-07-27T18:29:31.648Z,89.87
2016-07-27T18:30:35.512Z,87.83
2016-07-27T18:31:28.808Z,88.51
2016-07-27T18:32:29.662Z,88.11
2016-07-27T18:33:18.399Z,87.54
2016-07-27T18:34:28.773Z,88.61
2016-07-27T18:35:25.082Z,88.67
2016-07-27T18:36:28.111Z,88.57
2016-07-27T18:37:44.606Z,89.46
2016-07-27T18:38:32.671Z,90.08
2016-07-27T18:39:44.665Z,91.19
2016-07-27T18:41:39.757Z,90.18
2016-07-27T18:42:40.829Z,88.42
2016-07-27T18:44:35.747Z,90.06
2016-07-27T18:45:35.863Z,89.92
2016-07-27T18:46:38.801Z,90.02
2016-07-27T18:47:34.690Z,93.20
2016-07-27T18:48:23.441Z,92.22
2016-07-27T18:49:34.817Z,91.89
2016-07-27T18:50:39.541Z,92.34
2016-07-27T18:51:34.419Z,92.99
2016-07-27T18:52:37.351Z,92.62
2016-07-27T18:53:30.507Z,91.53
2016-07-27T18:55:34.115Z,92.13
2016-07-27T18:56:38.525Z,91.34
2016-07-27T18:58:24.062Z,92.83
2016-07-27T19:00:48.175Z,92.49
2016-07-27T19:01:31.291Z,93.12
2016-07-27T19:02:29.573Z,94.32
2016-07-27T19:03:24.334Z,94.77
2016-07-27T19:04:33.449Z,94.11
2016-07-27T19:05:31.102Z,93.32
2016-07-27T19:06:43.252Z,94.11
2016-07-27T19:07:38.824Z,93.16
2016-07-27T19:08:33.612Z,93.12
2016-07-27T19:09:51.564Z,94.85
2016-07-27T19:11:24.363Z,93.61
2016-07-27T19:12:53.806Z,95.29
2016-07-27T19:14:31.786Z,93.92
2016-07-27T19:16:24.745Z,91.32
2016-07-27T19:17:40.046Z,90.67
2016-07-27T19:18:34.540Z,91.23
2016-07-27T19:19:31.654Z,92.04
2016-07-27T19:20:40.551Z,90.60
2016-07-27T19:21:24.208Z,90.58
2016-07-27T19:22:49.091Z,91.13
2016-07-27T19:23:35.352Z,92.11
2016-07-27T19:24:35.373Z,92.37
2016-07-27T19:25:59.642Z,93.62
2016-07-27T19:26:45.020Z,92.28
2016-07-27T19:28:17.747Z,93.48
2016-07-27T19:29:38.577Z,92.71
2016-07-27T19:30:30.587Z,93.52
2016-07-27T19:31:17.530Z,93.49
2016-07-27T19:32:23.381Z,93.91
2016-07-27T19:34:31.522Z,93.79
2016-07-27T19:35:28.706Z,94.26
2016-07-27T19:36:35.894Z,95.00
2016-07-27T19:37:35.963Z,95.07
2016-07-27T19:38:33.252Z,94.61
2016-07-27T19:39:31.027Z,94.36
2016-07-27T19:40:26.829Z,94.09
2016-07-27T19:41:23.056Z,95.24
2016-07-27T19:42:30.148Z,95.59
2016-07-27T19:43:28.330Z,95.51
2016-07-27T19:44:22.964Z,95.16
2016-07-27T19:45:27.994Z,94.36
2016-07-27T19:46:30.040Z,94.41
2016-07-27T19:47:28.455Z,95.20
2016-07-27T19:48:26.037Z,94.91
2016-07-27T19:49:30.577Z,95.08
2016-07-27T19:50:22.714Z,95.56
2016-07-27T19:51:47.215Z,94.54
2016-07-27T19:52:30.207Z,94.64
2016-07-27T19:53:41.324Z,96.07
2016-07-27T19:55:24.161Z,94.99
2016-07-27T19:56:18.913Z,94.65
2016-07-27T19:56:29.876Z,96.13
2016-07-27T19:57:29.336Z,95.41
2016-07-27T19:58:30.236Z,95.77
2016-07-27T19:59:32.761Z,96.28
2016-07-27T20:00:30.851Z,95.36
2016-07-27T20:01:46.102Z,95.11
2016-07-27T20:02:31.003Z,94.35
2016-07-27T20:03:39.219Z,93.78
2016-07-27T20:04:36.866Z,94.11
2016-07-27T20:05:54.489Z,94.04
2016-07-27T20:06:30.271Z,94.43
2016-07-27T20:07:32.579Z,93.33
2016-07-27T20:08:33.332Z,94.35
2016-07-27T20:09:26.387Z,94.75
2016-07-27T20:10:28.592Z,95.48
2016-07-27T20:11:24.174Z,95.78
2016-07-27T20:12:38.008Z,94.31
2016-07-27T20:13:31.115Z,93.66
2016-07-27T20:14:24.442Z,94.18
2016-07-27T20:15:30.419Z,95.55
2016-07-27T20:16:29.206Z,95.64
2016-07-27T20:17:23.230Z,95.46
2016-07-27T20:18:25.413Z,96.02
2016-07-27T20:19:36.449Z,95.87
2016-07-27T20:20:23.694Z,96.87
2016-07-27T20:21:22.574Z,96.34
2016-07-27T20:22:24.183Z,97.10
2016-07-27T20:23:26.548Z,97.11
2016-07-27T20:24:31.914Z,97.66
2016-07-27T20:25:26.390Z,96.44
2016-07-27T20:26:23.182Z,96.21
2016-07-27T20:27:27.469Z,96.25
2016-07-27T20:28:39.194Z,96.71
2016-07-27T20:29:36.223Z,97.60
2016-07-27T20:30:24.552Z,96.25
2016-07-27T20:31:44.688Z,96.16
2016-07-27T20:32:33.591Z,96.84
2016-07-27T20:33:25.395Z,96.45
2016-07-27T20:34:30.185Z,97.20
2016-07-27T20:35:35.241Z,96.89
2016-07-27T20:36:24.215Z,97.58
2016-07-27T20:37:34.130Z,98.08
2016-07-27T20:38:23.601Z,97.67
2016-07-27T20:39:29.559Z,97.59
2016-07-27T20:41:44.315Z,97.21
2016-07-27T20:42:41.166Z,97.05
2016-07-27T20:43:34.760Z,96.97
2016-07-27T20:44:36.038Z,97.56
2016-07-27T20:45:28.882Z,97.72
2016-07-27T20:46:18.206Z,97.40
2016-07-27T20:47:22.696Z,97.99
2016-07-27T20:48:34.722Z,97.18
2016-07-27T20:49:24.208Z,96.86
2016-07-27T20:50:44.710Z,96.43
2016-07-27T20:51:24.899Z,96.81
2016-07-27T20:52:24.118Z,96.92
2016-07-27T20:53:29.051Z,96.42
2016-07-27T20:54:26.152Z,97.21
2016-07-27T20:56:29.845Z,97.41
2016-07-27T20:57:29.074Z,97.70
2016-07-27T20:58:29.214Z,98.37
2016-07-27T20:59:34.695Z,98.52
2016-07-27T21:00:29.271Z,98.57
2016-07-27T21:01:33.259Z,98.52
2016-07-27T21:02:22.653Z,98.41
2016-07-27T21:03:34.553Z,98.18
2016-07-27T21:04:39.493Z,97.72
2016-07-27T21:05:39.266Z,98.00
2016-07-27T21:06:30.181Z,97.91
2016-07-27T21:07:26.031Z,97.83
2016-07-27T21:08:23.866Z,97.76
2016-07-27T21:09:25.934Z,97.30
2016-07-27T21:10:41.533Z,96.97
2016-07-27T21:11:29.141Z,97.10
2016-07-27T21:12:34.001Z,96.61
2016-07-27T21:13:30.051Z,96.64
2016-07-27T21:14:34.984Z,96.59
2016-07-27T21:15:31.005Z,96.92
2016-07-27T21:16:25.013Z,97.07
2016-07-27T21:17:33.964Z,97.19
2016-07-27T21:18:24.046Z,96.46
2016-07-27T21:19:34.184Z,96.35
2016-07-27T21:20:39.659Z,96.09
2016-07-27T21:21:28.938Z,96.24
2016-07-27T21:22:31.898Z,96.13
2016-07-27T21:23:26.976Z,95.77
2016-07-27T21:24:23.586Z,95.81
2016-07-27T21:26:35.567Z,96.48
2016-07-27T21:27:23.666Z,96.06
2016-07-27T21:28:34.310Z,95.61
2016-07-27T21:29:17.806Z,95.66
2016-07-27T21:30:23.034Z,96.17
2016-07-27T21:31:28.680Z,95.76
2016-07-27T21:32:18.219Z,95.95
2016-07-27T21:33:17.315Z,95.32
2016-07-27T21:34:28.901Z,95.74
2016-07-27T21:35:29.754Z,96.23
2016-07-27T21:36:36.461Z,95.64
2016-07-27T21:37:35.389Z,96.22
2016-07-27T21:38:17.945Z,96.01
2016-07-27T21:39:39.466Z,96.32
2016-07-27T21:40:24.155Z,96.32
2016-07-27T21:41:42.617Z,96.36
2016-07-27T21:42:30.116Z,96.45
2016-07-27T21:43:28.774Z,96.78
2016-07-27T21:44:30.964Z,96.27
2016-07-27T21:45:35.057Z,95.73
2016-07-27T21:46:24.586Z,96.23
2016-07-27T21:48:23.047Z,96.13
2016-07-27T21:48:33.666Z,96.60
2016-07-27T21:49:34.706Z,96.97
2016-07-27T21:50:24.554Z,97.04
2016-07-27T21:51:33.667Z,97.27
2016-07-27T21:52:24.096Z,97.03
2016-07-27T21:53:34.238Z,96.68
2016-07-27T21:54:23.092Z,96.86
2016-07-27T21:55:23.637Z,96.99
2016-07-27T21:56:23.085Z,96.31
2016-07-27T21:57:25.462Z,97.22
2016-07-27T21:58:33.335Z,96.71
2016-07-27T21:59:22.323Z,96.95
2016-07-27T22:00:29.783Z,96.70
2016-07-27T22:01:40.342Z,96.41
2016-07-27T22:02:23.618Z,96.62
2016-07-27T22:03:25.188Z,96.84
2016-07-27T22:04:34.686Z,97.28
2016-07-27T22:05:28.199Z,97.11
2016-07-27T22:06:30.712Z,97.02
2016-07-27T22:07:34.852Z,97.00
2016-07-27T22:08:33.606Z,96.87
2016-07-27T22:09:23.810Z,96.89
2016-07-27T22:10:30.532Z,96.50
2016-07-27T22:11:33.748Z,97.03
2016-07-27T22:12:24.572Z,96.67
2016-07-27T22:13:23.951Z,96.63
2016-07-27T22:14:22.635Z,96.15
2016-07-27T22:15:33.997Z,97.00
2016-07-27T22:16:33.273Z,97.26
2016-07-27T22:17:29.719Z,96.92
2016-07-27T22:18:23.421Z,96.74
2016-07-27T22:19:34.393Z,96.69
2016-07-27T22:20:39.387Z,96.49
2016-07-27T22:21:28.906Z,96.57
2016-07-27T22:22:27.421Z,97.19
2016-07-27T22:23:25.238Z,96.57
2016-07-27T22:24:31.160Z,96.86
2016-07-27T22:26:45.473Z,96.93
2016-07-27T22:27:30.146Z,97.01
2016-07-27T22:28:25.556Z,97.42
2016-07-27T22:29:36.294Z,96.79
2016-07-27T22:30:24.078Z,97.67
2016-07-27T22:31:33.411Z,97.45
2016-07-27T22:32:33.490Z,97.04
2016-07-27T22:34:30.881Z,96.94
2016-07-27T22:35:35.375Z,97.13
2016-07-27T22:36:46.838Z,97.41
2016-07-27T22:37:23.567Z,97.16
2016-07-27T22:38:28.787Z,97.47
2016-07-27T22:39:29.727Z,97.73
2016-07-27T22:40:25.156Z,97.40
2016-07-27T22:41:23.144Z,97.56
2016-07-27T22:42:40.409Z,97.52
2016-07-27T22:43:34.763Z,97.35
2016-07-27T22:44:24.587Z,97.33
2016-07-27T22:45:29.158Z,97.24
2016-07-27T22:46:24.611Z,97.51
2016-07-27T22:47:39.703Z,97.56
2016-07-27T22:48:23.924Z,97.76
2016-07-27T22:49:34.183Z,97.35
2016-07-27T22:50:23.402Z,97.61
2016-07-27T22:51:28.425Z,97.97
2016-07-27T22:52:23.644Z,97.98
2016-07-27T22:53:22.884Z,98.42
2016-07-27T22:54:33.446Z,98.48
2016-07-27T22:55:24.364Z,97.39
2016-07-27T22:56:23.174Z,98.06
2016-07-27T22:57:31.765Z,98.01
2016-07-27T22:58:26.182Z,98.01
2016-07-27T22:59:32.538Z,98.48
2016-07-27T23:00:24.039Z,98.49
2016-07-27T23:01:30.957Z,98.47
2016-07-27T23:02:28.277Z,98.03
2016-07-27T23:03:28.838Z,98.29
2016-07-27T23:04:31.549Z,98.49
2016-07-27T23:05:33.225Z,98.43
2016-07-27T23:06:38.678Z,98.19
2016-07-27T23:08:42.770Z,98.49
2016-07-27T23:09:30.764Z,98.58
2016-07-27T23:10:35.564Z,98.79
2016-07-27T23:11:31.602Z,99.04
2016-07-27T23:12:40.458Z,99.17
2016-07-27T23:13:31.595Z,98.92
2016-07-27T23:14:32.644Z,99.03
2016-07-27T23:15:34.554Z,99.02
2016-07-27T23:16:28.262Z,99.20
2016-07-27T23:17:29.435Z,99.13
2016-07-27T23:18:25.042Z,99.36
2016-07-27T23:20:38.745Z,99.02
2016-07-27T23:21:47.476Z,99.21
2016-07-27T23:22:35.479Z,98.88
2016-07-27T23:23:31.067Z,98.58
2016-07-27T23:24:39.844Z,98.89
2016-07-27T23:25:29.384Z,98.98
2016-07-27T23:26:28.188Z,99.23
2016-07-27T23:27:39.589Z,98.71
2016-07-27T23:28:42.774Z,99.18
2016-07-27T23:29:37.475Z,98.62
2016-07-27T23:31:28.205Z,98.62
2016-07-27T23:32:25.660Z,98.86
2016-07-27T23:33:43.726Z,99.10
2016-07-27T23:34:40.227Z,99.15
2016-07-27T23:35:35.886Z,98.60
2016-07-27T23:36:30.467Z,98.87
2016-07-27T23:37:30.194Z,98.91
2016-07-27T23:38:29.815Z,99.17
2016-07-27T23:39:32.855Z,99.15
2016-07-27T23:40:39.998Z,99.02
2016-07-27T23:41:43.751Z,99.01
2016-07-27T23:43:35.306Z,99.44
2016-07-27T23:44:37.973Z,99.45
2016-07-27T23:45:29.662Z,99.36
2016-07-27T23:46:41.869Z,99.28
2016-07-27T23:47:31.944Z,99.47
2016-07-27T23:48:51.575Z,99.54
2016-07-27T23:49:31.765Z,98.79
2016-07-27T23:50:43.913Z,98.97
2016-07-27T23:52:25.277Z,99.40
2016-07-27T23:53:38.774Z,99.27
2016-07-27T23:54:30.098Z,99.37
2016-07-27T23:55:28.944Z,99.39
2016-07-27T23:56:31.377Z,99.39
2016-07-27T23:57:31.008Z,98.91
2016-07-27T23:58:30.463Z,98.84
2016-07-27T23:59:42.899Z,98.84
